createdAt,value
2019-05-05T00:03:04.160Z,66.69
2019-05-05T00:06:14.665Z,66.71
2019-05-05T00:09:35.130Z,66.89
2019-05-05T00:13:04.459Z,66.93
2019-05-05T00:16:30.742Z,67.08
2019-05-05T00:19:39.362Z,67.14
2019-05-05T00:22:47.947Z,67.77
2019-05-05T00:26:06.847Z,67.49
2019-05-05T00:29:15.471Z,67.53
2019-05-05T00:32:24.577Z,67.34
2019-05-05T00:35:49.766Z,67.74
2019-05-05T00:38:58.277Z,67.96
2019-05-05T00:42:07.288Z,67.82
2019-05-05T00:45:16.510Z,68.25
2019-05-05T00:48:35.039Z,68.31
2019-05-05T00:51:54.687Z,68.60
2019-05-05T00:55:04.598Z,68.69
2019-05-05T00:58:24.724Z,68.73
2019-05-05T01:01:44.881Z,68.46
2019-05-05T01:05:04.529Z,68.63
2019-05-05T01:08:17.346Z,68.80
2019-05-05T01:11:26.006Z,69.20
2019-05-05T01:14:34.592Z,69.35
2019-05-05T01:17:45.016Z,69.68
2019-05-05T01:20:55.194Z,70.15
2019-05-05T01:24:05.142Z,70.64
2019-05-05T01:27:14.724Z,70.79
2019-05-05T01:30:29.622Z,70.20
2019-05-05T01:33:57.137Z,70.55
2019-05-05T01:37:12.784Z,69.16
2019-05-05T01:40:32.075Z,70.25
2019-05-05T01:43:59.082Z,71.20
2019-05-05T01:47:07.737Z,71.44
2019-05-05T01:50:20.914Z,71.64
2019-05-05T01:53:26.790Z,71.91
2019-05-05T01:56:35.996Z,71.75
2019-05-05T01:59:45.050Z,72.15
2019-05-05T02:03:04.564Z,72.25
2019-05-05T02:06:14.577Z,72.42
2019-05-05T02:09:35.388Z,72.45
2019-05-05T02:12:44.713Z,72.41
2019-05-05T02:15:55.252Z,72.45
2019-05-05T02:19:14.356Z,72.23
2019-05-05T02:22:35.514Z,72.79
2019-05-05T02:25:44.781Z,73.05
2019-05-05T02:29:04.880Z,72.91
2019-05-05T02:32:41.811Z,73.02
2019-05-05T02:36:08.565Z,73.04
2019-05-05T02:39:17.149Z,72.66
2019-05-05T02:42:28.076Z,73.10
2019-05-05T02:46:21.509Z,73.24
2019-05-05T02:49:31.409Z,73.17
2019-05-05T02:52:50.751Z,72.83
2019-05-05T02:56:16.513Z,71.53
2019-05-05T02:59:44.260Z,72.58
2019-05-05T03:02:53.863Z,71.57
2019-05-05T03:06:04.392Z,72.67
2019-05-05T03:09:14.807Z,72.50
2019-05-05T03:12:25.936Z,72.51
2019-05-05T03:16:03.797Z,72.59
2019-05-05T03:19:25.550Z,72.81
2019-05-05T03:22:34.195Z,73.62
2019-05-05T03:25:44.035Z,73.58
2019-05-05T03:29:05.180Z,74.03
2019-05-05T03:32:25.846Z,73.73
2019-05-05T03:35:34.638Z,73.44
2019-05-05T03:38:44.529Z,73.11
2019-05-05T03:42:13.963Z,72.79
2019-05-05T03:45:34.261Z,72.86
2019-05-05T03:48:43.843Z,73.22
2019-05-05T03:51:54.366Z,72.69
2019-05-05T03:55:03.785Z,72.92
2019-05-05T03:58:14.510Z,73.49
2019-05-05T04:01:38.696Z,73.65
2019-05-05T04:04:49.740Z,73.71
2019-05-05T04:07:58.360Z,73.93
2019-05-05T04:11:06.881Z,73.35
2019-05-05T04:14:18.485Z,73.75
2019-05-05T04:17:53.607Z,74.06
2019-05-05T04:21:04.011Z,73.49
2019-05-05T04:24:14.508Z,74.03
2019-05-05T04:27:23.907Z,73.27
2019-05-05T04:30:33.857Z,73.91
2019-05-05T04:33:53.843Z,73.33
2019-05-05T04:37:04.167Z,73.39
2019-05-05T04:40:14.862Z,73.18
2019-05-05T04:43:24.626Z,73.10
2019-05-05T04:46:45.269Z,73.41
2019-05-05T04:50:09.044Z,72.98
2019-05-05T04:53:24.132Z,73.36
2019-05-05T04:56:53.866Z,73.48
2019-05-05T05:00:04.108Z,72.73
2019-05-05T05:03:29.528Z,73.20
2019-05-05T05:06:43.489Z,72.40
2019-05-05T05:09:53.915Z,72.10
2019-05-05T05:13:04.482Z,71.70
2019-05-05T05:16:13.911Z,71.52
2019-05-05T05:19:24.165Z,71.69
2019-05-05T05:22:44.021Z,71.56
2019-05-05T05:25:54.415Z,71.06
2019-05-05T05:29:04.513Z,68.83
2019-05-05T05:32:15.486Z,67.36
2019-05-05T05:35:24.432Z,66.10
2019-05-05T05:38:34.680Z,64.90
2019-05-05T05:41:44.631Z,61.25
2019-05-05T05:45:28.413Z,59.06
2019-05-05T05:48:43.702Z,56.09
2019-05-05T05:51:53.839Z,55.10
2019-05-05T05:55:04.126Z,54.68
2019-05-05T05:58:14.043Z,53.70
2019-05-05T06:01:34.593Z,52.98
2019-05-05T06:04:44.615Z,50.56
2019-05-05T06:07:54.494Z,50.25
2019-05-05T06:11:04.428Z,48.97
2019-05-05T06:14:14.536Z,48.62
2019-05-05T06:17:25.395Z,47.67
2019-05-05T06:20:34.807Z,46.15
2019-05-05T06:23:43.829Z,46.04
2019-05-05T06:26:54.575Z,45.40
2019-05-05T06:30:04.645Z,45.45
2019-05-05T06:33:13.782Z,44.84
2019-05-05T06:36:23.449Z,44.32
2019-05-05T06:39:33.478Z,45.85
2019-05-05T06:43:02.089Z,46.55
2019-05-05T06:46:35.456Z,47.05
2019-05-05T06:49:44.092Z,47.95
2019-05-05T06:53:04.289Z,48.28
2019-05-05T06:56:14.598Z,48.43
2019-05-05T06:59:24.329Z,48.12
2019-05-05T07:02:35.244Z,48.48
2019-05-05T07:05:43.998Z,47.92
2019-05-05T07:08:54.444Z,46.00
2019-05-05T07:12:04.518Z,45.66
2019-05-05T07:15:14.522Z,45.69
2019-05-05T07:18:34.220Z,44.84
2019-05-05T07:21:43.631Z,44.76
2019-05-05T07:24:54.180Z,43.00
2019-05-05T07:28:04.250Z,41.62
2019-05-05T07:31:14.384Z,42.59
2019-05-05T07:34:24.500Z,42.15
2019-05-05T07:37:57.118Z,42.32
2019-05-05T07:41:05.777Z,42.29
2019-05-05T07:44:25.937Z,41.91
2019-05-05T07:47:24.558Z,42.43
2019-05-05T07:50:35.663Z,42.16
2019-05-05T07:53:44.256Z,41.46
2019-05-05T07:57:04.203Z,39.82
2019-05-05T08:00:14.826Z,39.81
2019-05-05T08:03:23.737Z,39.65
2019-05-05T08:06:33.917Z,40.85
2019-05-05T08:09:44.414Z,40.29
2019-05-05T08:12:54.224Z,40.61
2019-05-05T08:16:04.968Z,40.40
2019-05-05T08:19:45.092Z,41.92
2019-05-05T08:23:32.636Z,44.27
2019-05-05T08:26:47.254Z,43.75
2019-05-05T08:30:02.296Z,44.18
2019-05-05T08:33:11.287Z,43.16
2019-05-05T08:36:19.893Z,43.30
2019-05-05T08:39:28.414Z,44.00
2019-05-05T08:42:47.344Z,43.37
2019-05-05T08:45:56.010Z,44.00
2019-05-05T08:49:04.735Z,44.08
2019-05-05T08:52:11.945Z,43.90
2019-05-05T08:55:20.687Z,43.69
2019-05-05T08:58:29.231Z,45.43
2019-05-05T09:01:38.564Z,44.59
2019-05-05T09:04:47.453Z,46.36
2019-05-05T09:07:56.121Z,48.22
2019-05-05T09:11:05.038Z,48.84
2019-05-05T09:14:14.871Z,48.58
2019-05-05T09:17:24.293Z,49.70
2019-05-05T09:20:34.782Z,48.91
2019-05-05T09:24:01.556Z,49.58
2019-05-05T09:27:50.733Z,47.61
2019-05-05T09:30:59.515Z,47.32
2019-05-05T09:34:08.119Z,47.98
2019-05-05T09:37:16.776Z,46.68
2019-05-05T09:40:38.169Z,46.73
2019-05-05T09:44:04.285Z,46.69
2019-05-05T09:47:13.634Z,45.66
2019-05-05T09:50:23.707Z,45.55
2019-05-05T09:53:34.250Z,45.16
2019-05-05T09:56:44.455Z,45.21
2019-05-05T09:59:55.775Z,46.15
2019-05-05T10:03:04.423Z,44.85
2019-05-05T10:06:24.381Z,46.34
2019-05-05T10:09:34.491Z,45.87
2019-05-05T10:12:47.655Z,47.00
2019-05-05T10:16:06.833Z,45.45
2019-05-05T10:19:15.513Z,45.71
2019-05-05T10:22:24.141Z,46.35
2019-05-05T10:25:37.552Z,45.90
2019-05-05T10:28:46.193Z,44.42
2019-05-05T10:31:54.708Z,44.78
2019-05-05T10:35:04.449Z,45.17
2019-05-05T10:38:23.672Z,44.87
2019-05-05T10:41:33.784Z,43.39
2019-05-05T10:44:44.486Z,43.14
2019-05-05T10:47:53.259Z,43.95
2019-05-05T10:51:04.028Z,43.61
2019-05-05T10:54:14.159Z,43.95
2019-05-05T10:57:23.635Z,43.20
2019-05-05T11:00:44.406Z,42.78
2019-05-05T11:03:52.687Z,43.07
2019-05-05T11:07:01.274Z,43.55
2019-05-05T11:10:10.333Z,44.28
2019-05-05T11:13:20.010Z,44.18
2019-05-05T11:16:39.087Z,44.78
2019-05-05T11:19:50.187Z,43.98
2019-05-05T11:22:58.000Z,44.27
2019-05-05T11:26:06.602Z,44.35
2019-05-05T11:29:14.382Z,43.04
2019-05-05T11:32:44.005Z,43.04
2019-05-05T11:36:00.019Z,42.89
2019-05-05T11:39:11.268Z,41.46
2019-05-05T11:42:19.920Z,41.19
2019-05-05T11:45:28.581Z,39.96
2019-05-05T11:48:37.226Z,40.00
2019-05-05T11:51:45.873Z,39.32
2019-05-05T11:55:08.612Z,39.09
2019-05-05T11:58:05.051Z,38.89
2019-05-05T12:01:14.022Z,38.20
2019-05-05T12:04:24.007Z,37.28
2019-05-05T12:07:34.233Z,34.98
2019-05-05T12:10:51.532Z,35.77
2019-05-05T12:14:03.834Z,36.27
2019-05-05T12:17:13.935Z,36.80
2019-05-05T12:20:33.714Z,36.97
2019-05-05T12:23:44.221Z,36.62
2019-05-05T12:27:11.314Z,36.96
2019-05-05T12:30:19.912Z,36.64
2019-05-05T12:33:28.486Z,35.24
2019-05-05T12:36:37.009Z,35.81
2019-05-05T12:39:45.631Z,36.49
2019-05-05T12:42:54.856Z,36.74
2019-05-05T12:46:13.828Z,35.69
2019-05-05T12:49:40.805Z,36.55
2019-05-05T12:52:49.323Z,37.08
2019-05-05T12:55:57.844Z,37.82
2019-05-05T12:59:10.851Z,37.10
2019-05-05T13:02:30.591Z,36.51
2019-05-05T13:05:39.186Z,36.34
2019-05-05T13:08:47.921Z,37.02
2019-05-05T13:11:56.459Z,37.08
2019-05-05T13:15:05.681Z,36.22
2019-05-05T13:18:14.301Z,36.99
2019-05-05T13:21:40.423Z,36.40
2019-05-05T13:25:00.658Z,36.60
2019-05-05T13:28:10.407Z,36.16
2019-05-05T13:31:29.243Z,35.50
2019-05-05T13:34:37.841Z,35.16
2019-05-05T13:37:46.572Z,34.55
2019-05-05T13:40:54.441Z,34.37
2019-05-05T13:44:24.274Z,34.90
2019-05-05T13:47:34.376Z,33.87
2019-05-05T13:50:48.597Z,34.57
2019-05-05T13:53:57.230Z,33.82
2019-05-05T13:57:06.567Z,34.06
2019-05-05T14:00:25.825Z,34.01
2019-05-05T14:03:45.180Z,33.95
2019-05-05T14:07:04.309Z,34.55
2019-05-05T14:10:11.695Z,34.02
2019-05-05T14:13:30.807Z,34.37
2019-05-05T14:16:40.640Z,33.86
2019-05-05T14:20:01.399Z,34.32
2019-05-05T14:22:59.708Z,34.61
2019-05-05T14:26:08.369Z,33.51
2019-05-05T14:29:38.318Z,33.79
2019-05-05T14:32:48.705Z,33.99
2019-05-05T14:36:07.346Z,34.38
2019-05-05T14:39:16.648Z,35.42
2019-05-05T14:42:25.352Z,35.70
2019-05-05T14:45:34.106Z,35.16
2019-05-05T14:48:44.078Z,35.26
2019-05-05T14:51:53.823Z,35.47
2019-05-05T14:55:03.911Z,35.30
2019-05-05T14:58:23.059Z,34.68
2019-05-05T15:01:31.578Z,34.66
2019-05-05T15:04:43.788Z,36.25
2019-05-05T15:08:02.569Z,37.89
2019-05-05T15:11:15.622Z,38.96
2019-05-05T15:14:24.449Z,38.47
2019-05-05T15:17:33.787Z,38.74
2019-05-05T15:20:54.334Z,39.18
2019-05-05T15:24:03.178Z,38.83
2019-05-05T15:27:11.814Z,39.22
2019-05-05T15:30:20.549Z,39.93
2019-05-05T15:33:27.773Z,39.68
2019-05-05T15:36:36.394Z,38.70
2019-05-05T15:39:45.034Z,38.46
2019-05-05T15:42:54.450Z,38.70
2019-05-05T15:46:15.246Z,39.48
2019-05-05T15:49:24.197Z,40.17
2019-05-05T15:52:35.174Z,39.71
2019-05-05T15:55:45.384Z,40.39
2019-05-05T15:58:52.509Z,40.60
2019-05-05T16:02:13.316Z,40.84
2019-05-05T16:05:24.143Z,40.10
2019-05-05T16:08:33.946Z,39.77
2019-05-05T16:11:44.435Z,40.77
2019-05-05T16:15:11.110Z,40.47
2019-05-05T16:19:03.117Z,39.43
2019-05-05T16:22:03.921Z,39.94
2019-05-05T16:25:16.279Z,40.46
2019-05-05T16:28:35.273Z,41.16
2019-05-05T16:31:43.999Z,41.09
2019-05-05T16:34:54.751Z,40.78
2019-05-05T16:38:03.838Z,40.26
2019-05-05T16:41:15.233Z,39.68
2019-05-05T16:44:23.852Z,39.74
2019-05-05T16:47:33.641Z,38.75
2019-05-05T16:50:44.182Z,38.30
2019-05-05T16:53:53.910Z,39.07
2019-05-05T16:57:03.974Z,39.87
2019-05-05T17:00:12.401Z,40.17
2019-05-05T17:03:23.981Z,39.78
2019-05-05T17:06:32.704Z,37.24
2019-05-05T17:09:51.553Z,36.93
2019-05-05T17:13:03.215Z,37.03
2019-05-05T17:16:37.167Z,38.05
2019-05-05T17:19:53.965Z,39.30
2019-05-05T17:23:05.328Z,40.23
2019-05-05T17:26:14.343Z,39.80
2019-05-05T17:29:23.618Z,39.88
2019-05-05T17:32:34.333Z,39.53
2019-05-05T17:35:42.748Z,40.42
2019-05-05T17:38:51.420Z,42.33
2019-05-05T17:42:08.335Z,46.08
2019-05-05T17:45:45.618Z,46.76
2019-05-05T17:49:59.249Z,48.46
2019-05-05T17:53:46.907Z,49.17
2019-05-05T17:56:55.571Z,50.13
2019-05-05T18:00:04.829Z,50.83
2019-05-05T18:03:13.363Z,50.93
2019-05-05T18:06:40.907Z,51.71
2019-05-05T18:10:07.419Z,51.76
2019-05-05T18:13:25.865Z,52.03
2019-05-05T18:16:34.487Z,51.89
2019-05-05T18:19:43.590Z,52.26
2019-05-05T18:22:53.607Z,52.66
2019-05-05T18:26:04.152Z,53.09
2019-05-05T18:29:14.471Z,53.34
2019-05-05T18:32:23.549Z,53.23
2019-05-05T18:35:33.927Z,53.00
2019-05-05T18:38:44.489Z,53.31
2019-05-05T18:42:13.816Z,53.46
2019-05-05T18:45:23.762Z,53.14
2019-05-05T18:48:34.364Z,53.46
2019-05-05T18:51:43.912Z,53.64
2019-05-05T18:54:54.515Z,54.03
2019-05-05T18:58:04.592Z,54.14
2019-05-05T19:01:44.525Z,54.26
2019-05-05T19:05:11.475Z,54.50
2019-05-05T19:08:29.234Z,54.29
2019-05-05T19:11:51.719Z,54.24
2019-05-05T19:15:00.530Z,54.58
2019-05-05T19:18:09.459Z,55.17
2019-05-05T19:21:26.318Z,55.44
2019-05-05T19:24:35.396Z,55.92
2019-05-05T19:27:45.050Z,56.02
2019-05-05T19:30:54.970Z,56.22
2019-05-05T19:34:04.177Z,56.66
2019-05-05T19:37:14.027Z,57.29
2019-05-05T19:40:24.334Z,57.49
2019-05-05T19:43:33.948Z,57.81
2019-05-05T19:46:49.345Z,57.99
2019-05-05T19:50:19.623Z,58.09
2019-05-05T19:53:28.211Z,58.93
2019-05-05T19:56:37.416Z,59.03
2019-05-05T19:59:46.014Z,59.30
2019-05-05T20:03:04.004Z,59.94
2019-05-05T20:06:05.146Z,60.05
2019-05-05T20:09:24.762Z,60.05
2019-05-05T20:12:35.300Z,60.78
2019-05-05T20:15:50.795Z,60.88
2019-05-05T20:18:59.467Z,60.92
2019-05-05T20:22:07.996Z,60.46
2019-05-05T20:25:18.801Z,60.96
2019-05-05T20:28:28.526Z,61.47
2019-05-05T20:31:54.947Z,60.91
2019-05-05T20:35:10.021Z,60.92
2019-05-05T20:38:26.581Z,60.17
2019-05-05T20:41:35.206Z,60.14
2019-05-05T20:44:45.057Z,60.15
2019-05-05T20:47:53.661Z,59.96
2019-05-05T20:51:13.818Z,60.34
2019-05-05T20:54:23.752Z,60.40
2019-05-05T20:57:34.451Z,59.92
2019-05-05T21:00:44.245Z,59.69
2019-05-05T21:04:04.773Z,59.61
2019-05-05T21:07:14.099Z,59.66
2019-05-05T21:10:24.267Z,59.61
2019-05-05T21:13:45.046Z,59.64
2019-05-05T21:16:54.767Z,59.30
2019-05-05T21:20:04.319Z,59.08
2019-05-05T21:23:43.811Z,59.49
2019-05-05T21:27:04.326Z,59.61
2019-05-05T21:30:23.889Z,59.78
2019-05-05T21:33:34.736Z,59.34
2019-05-05T21:36:54.022Z,59.54
2019-05-05T21:40:04.691Z,59.25
2019-05-05T21:43:15.364Z,59.28
2019-05-05T21:46:24.133Z,59.36
2019-05-05T21:49:33.766Z,59.31
2019-05-05T21:52:57.678Z,60.14
2019-05-05T21:56:27.726Z,60.18
2019-05-05T21:59:37.363Z,60.54
2019-05-05T22:02:46.353Z,60.61
2019-05-05T22:05:56.070Z,60.25
2019-05-05T22:09:07.195Z,60.23
2019-05-05T22:12:15.801Z,60.39
2019-05-05T22:15:24.323Z,60.78
2019-05-05T22:18:32.993Z,61.35
2019-05-05T22:21:45.982Z,61.50
2019-05-05T22:24:54.509Z,62.70
2019-05-05T22:28:04.257Z,63.20
2019-05-05T22:31:14.224Z,62.79
2019-05-05T22:34:33.504Z,62.48
2019-05-05T22:37:52.425Z,62.38
2019-05-05T22:41:01.161Z,62.49
2019-05-05T22:44:10.596Z,62.76
2019-05-05T22:47:29.358Z,62.65
2019-05-05T22:50:38.073Z,62.70
2019-05-05T22:53:48.946Z,63.08
2019-05-05T22:57:07.927Z,63.11
2019-05-05T23:00:26.622Z,62.92
2019-05-05T23:03:36.426Z,63.32
2019-05-05T23:06:46.482Z,63.98
2019-05-05T23:09:55.194Z,64.52
2019-05-05T23:13:04.029Z,64.28
2019-05-05T23:16:23.732Z,64.56
2019-05-05T23:19:55.730Z,64.59
2019-05-05T23:23:34.286Z,64.95
2019-05-05T23:26:43.937Z,64.25
2019-05-05T23:29:52.543Z,64.92
2019-05-05T23:33:01.532Z,65.10
2019-05-05T23:36:10.497Z,65.25
2019-05-05T23:39:19.163Z,65.25
2019-05-05T23:42:27.812Z,65.02
2019-05-05T23:45:36.566Z,65.49
2019-05-05T23:48:55.292Z,65.44
2019-05-05T23:52:04.400Z,65.81
2019-05-05T23:55:23.921Z,65.92
2019-05-05T23:58:34.717Z,65.96
